Time;durP1;ratioP1;P1;durP2;ratioP2;P2;SDS_P1;SDS_P2;PMS_P1;PMS_P2;Temp;Humidity;BMP_temperature;BMP_pressure;BME280_temperature;BME280_humidity;BME280_pressure;Samples;Min_cycle;Max_cycle;Signal;HPM_P1;HPM_P2
2022/04/13 00:00:56;;;;;;;;;;;;;;;17.56;56.20;99333.06;2084163;28;20009;-48
2022/04/13 00:01:56;;;;;;;;;;;;;;;17.56;56.22;99335.78;2084175;28;19924;-47
2022/04/13 00:02:56;;;;;;;;;;;;;;;17.56;56.30;99333.06;2083577;28;20232;-51
2022/04/13 00:03:57;;;;;;;;;;;;;;;17.56;56.44;99335.78;2083117;28;20386;-51
2022/04/13 00:04:57;;;;;;;;;;;;;;;17.54;56.29;99324.19;2083279;28;19942;-50
2022/04/13 00:05:57;;;;;;;;;;;;;;;17.56;56.24;99326.72;2082543;28;20249;-48
2022/04/13 00:06:58;;;;;;;;;;;;;;;17.56;56.41;99334.91;2082647;28;19967;-48
2022/04/13 00:07:58;;;;;;;;;;;;;;;17.54;56.25;99329.63;2082091;28;19917;-51
2022/04/13 00:08:58;;;;;;;;;;;;;;;17.55;56.22;99336.78;2082503;28;19932;-47
2022/04/13 00:09:59;;;;;;;;;;;;;;;17.57;56.48;99339.34;2096835;28;19917;-48
2022/04/13 00:11:00;;;;;;;;;;;;;;;17.56;56.44;99332.16;2100779;28;19922;-50
2022/04/13 00:12:01;;;;;;;;;;;;;;;17.56;56.33;99341.22;2086919;28;19923;-47
2022/04/13 00:13:01;;;;;;;;;;;;;;;17.56;56.54;99338.50;2081636;28;19916;-48
2022/04/13 00:14:02;;;;;;;;;;;;;;;17.54;56.44;99335.06;2085145;28;19975;-48
2022/04/13 00:15:03;;;;;;;;;;;;;;;17.56;56.31;99332.16;2081795;28;19978;-47
2022/04/13 00:16:03;;;;;;;;;;;;;;;17.55;56.33;99328.59;2084517;28;19949;-51
2022/04/13 00:17:04;;;;;;;;;;;;;;;17.56;56.54;99330.31;2087310;28;19920;-47
2022/04/13 00:18:06;;;;;;;;;;;;;;;17.56;56.37;99326.72;2090305;28;19919;-49
2022/04/13 00:19:06;;;;;;;;;;;;;;;17.54;56.40;99329.63;2088280;28;19947;-46
2022/04/13 00:20:07;;;;;;;;;;;;;;;17.54;56.54;99324.19;2086029;28;19924;-49
2022/04/13 00:21:07;;;;;;;;;;;;;;;17.55;56.29;99320.41;2084286;28;19923;-50
2022/04/13 00:22:07;;;;;;;;;;;;;;;17.54;56.34;99321.44;2085715;28;19959;-48
2022/04/13 00:23:08;;;;;;;;;;;;;;;17.53;56.19;99322.44;2084963;28;20104;-50
2022/04/13 00:24:08;;;;;;;;;;;;;;;17.54;56.38;99324.19;2081511;28;19913;-46
2022/04/13 00:25:09;;;;;;;;;;;;;;;17.52;56.14;99320.75;2089043;28;19920;-50
2022/04/13 00:26:09;;;;;;;;;;;;;;;17.52;56.24;99320.75;2081716;28;19921;-46
2022/04/13 00:27:09;;;;;;;;;;;;;;;17.52;56.14;99320.75;2090206;28;19974;-48
2022/04/13 00:28:10;;;;;;;;;;;;;;;17.53;56.09;99327.91;2085013;28;20325;-49
2022/04/13 00:29:10;;;;;;;;;;;;;;;17.52;56.16;99318.03;2082350;28;19921;-49
2022/04/13 00:30:11;;;;;;;;;;;;;;;17.52;56.23;99320.75;2090587;28;19972;-50
2022/04/13 00:31:11;;;;;;;;;;;;;;;17.53;56.25;99317.00;2082561;28;19920;-48
2022/04/13 00:32:11;;;;;;;;;;;;;;;17.52;56.00;99315.28;2086086;28;19920;-46
2022/04/13 00:33:12;;;;;;;;;;;;;;;17.52;56.14;99312.56;2082741;28;19927;-49
2022/04/13 00:34:12;;;;;;;;;;;;;;;17.52;56.01;99320.75;2081612;28;19970;-52
2022/04/13 00:35:12;;;;;;;;;;;;;;;17.51;56.13;99319.00;2084925;28;19955;-51
2022/04/13 00:36:12;;;;;;;;;;;;;;;17.52;55.98;99320.75;2100096;28;19986;-47
2022/04/13 00:37:13;;;;;;;;;;;;;;;17.52;55.92;99323.47;2101689;28;20481;-50
2022/04/13 00:38:13;;;;;;;;;;;;;;;17.53;55.91;99324.31;2081983;28;20295;-50
2022/04/13 00:39:13;;;;;;;;;;;;;;;17.53;56.17;99325.16;2083411;28;20407;-47
2022/04/13 00:40:14;;;;;;;;;;;;;;;17.53;55.97;99322.44;2083629;28;20031;-51
2022/04/13 00:41:14;;;;;;;;;;;;;;;17.54;55.97;99312.38;2078923;28;20002;-47
2022/04/13 00:42:16;;;;;;;;;;;;;;;17.53;56.01;99319.72;2085116;28;19924;-50
2022/04/13 00:43:17;;;;;;;;;;;;;;;17.53;56.22;99314.28;2080157;28;19924;-55
2022/04/13 00:44:17;;;;;;;;;;;;;;;17.51;56.22;99308.13;2083963;28;20256;-47
2022/04/13 00:45:17;;;;;;;;;;;;;;;17.51;56.33;99310.84;2081733;28;20143;-48
2022/04/13 00:46:18;;;;;;;;;;;;;;;17.52;56.32;99314.44;2081992;28;20896;-48
2022/04/13 00:47:18;;;;;;;;;;;;;;;17.51;56.04;99310.84;2083589;28;20137;-50
2022/04/13 00:48:32;;;;;;;;;;;;;;;17.53;56.34;99308.81;2082184;28;19927;-48
2022/04/13 00:49:33;;;;;;;;;;;;;;;17.51;56.27;99302.66;2084918;28;20109;-48
2022/04/13 00:50:33;;;;;;;;;;;;;;;17.50;56.24;99309.16;2081369;28;20454;-49
2022/04/13 00:51:34;;;;;;;;;;;;;;;17.51;55.99;99310.84;2085323;28;19920;-46
2022/04/13 00:52:37;;;;;;;;;;;;;;;17.51;56.08;99313.56;2081543;28;20578;-48
2022/04/13 00:53:40;;;;;;;;;;;;;;;17.52;56.05;99318.03;2079983;28;20023;-51
2022/04/13 00:54:42;;;;;;;;;;;;;;;17.52;55.97;99309.84;2084598;28;19966;-49
2022/04/13 00:55:43;;;;;;;;;;;;;;;17.51;56.18;99304.53;2080990;28;20007;-49
2022/04/13 00:56:45;;;;;;;;;;;;;;;17.53;55.97;99311.53;2080540;28;19921;-50
2022/04/13 00:57:45;;;;;;;;;;;;;;;17.55;56.20;99309.53;2082466;28;19912;-50
2022/04/13 00:58:46;;;;;;;;;;;;;;;17.55;56.19;99309.53;2086417;28;20622;-49
2022/04/13 00:59:51;;;;;;;;;;;;;;;17.55;56.11;99314.97;2086061;28;20018;-50
2022/04/13 01:00:52;;;;;;;;;;;;;;;17.55;55.95;99317.69;2084266;28;19921;-50
2022/04/13 01:01:58;;;;;;;;;;;;;;;17.57;56.03;99323.84;2081681;28;19921;-50
2022/04/13 01:02:59;;;;;;;;;;;;;;;17.58;55.79;99327.41;2084989;28;19916;-49
2022/04/13 01:04:00;;;;;;;;;;;;;;;17.58;55.84;99324.69;2084370;28;20170;-50
2022/04/13 01:05:02;;;;;;;;;;;;;;;17.57;55.86;99317.56;2077656;28;19925;-51
2022/04/13 01:06:03;;;;;;;;;;;;;;;17.57;55.94;99317.56;2086972;28;20125;-51
2022/04/13 01:07:06;;;;;;;;;;;;;;;17.58;55.88;99317.38;2085685;28;19939;-51
2022/04/13 01:08:08;;;;;;;;;;;;;;;17.60;55.94;99317.22;2081257;28;19923;-50
2022/04/13 01:09:08;;;;;;;;;;;;;;;17.61;55.94;99323.53;2086397;28;19912;-52
2022/04/13 01:10:09;;;;;;;;;;;;;;;17.61;55.83;99323.53;2080673;28;20002;-51
2022/04/13 01:11:11;;;;;;;;;;;;;;;17.61;55.86;99326.25;2081868;28;20083;-52
2022/04/13 01:12:11;;;;;;;;;;;;;;;17.61;55.90;99323.53;2084134;28;19920;-49
2022/04/13 01:13:12;;;;;;;;;;;;;;;17.60;55.90;99322.69;2079664;28;19920;-50
2022/04/13 01:14:13;;;;;;;;;;;;;;;17.63;55.91;99326.94;2084061;28;20289;-47
2022/04/13 01:15:13;;;;;;;;;;;;;;;17.62;55.75;99328.81;2075789;28;19920;-50
2022/04/13 01:16:13;;;;;;;;;;;;;;;17.61;55.99;99327.09;2080032;28;20666;-51
2022/04/13 01:17:14;;;;;;;;;;;;;;;17.61;55.61;99324.38;2098998;28;20292;-49
2022/04/13 01:18:18;;;;;;;;;;;;;;;17.62;55.82;99319.81;2090239;28;20153;-46
2022/04/13 01:19:18;;;;;;;;;;;;;;;17.61;55.78;99324.38;2079164;28;20380;-50
2022/04/13 01:20:22;;;;;;;;;;;;;;;17.62;55.67;99327.97;2080289;28;19924;-50
2022/04/13 01:21:44;;;;;;;;;;;;;;;17.60;55.87;99327.28;2084902;28;19924;-51
2022/04/13 01:22:47;;;;;;;;;;;;;;;17.61;55.72;99323.53;2084169;28;19924;-47
2022/04/13 01:23:50;;;;;;;;;;;;;;;17.60;55.68;99319.94;2082966;28;20382;-51
2022/04/13 01:24:50;;;;;;;;;;;;;;;17.58;55.57;99311.91;2082051;28;19943;-50
2022/04/13 01:25:51;;;;;;;;;;;;;;;17.57;55.50;99310.22;2079026;28;20291;-50
2022/04/13 01:26:51;;;;;;;;;;;;;;;17.58;55.72;99314.66;2084807;28;19920;-49
2022/04/13 01:27:52;;;;;;;;;;;;;;;17.58;55.74;99309.19;2082449;28;19920;-51
2022/04/13 01:28:52;;;;;;;;;;;;;;;17.58;55.79;99320.09;2087363;28;20277;-46
2022/04/13 01:29:54;;;;;;;;;;;;;;;17.58;55.80;99317.38;2083156;28;19920;-48
2022/04/13 01:30:55;;;;;;;;;;;;;;;17.58;55.57;99314.66;2080908;28;20658;-50
2022/04/13 01:31:56;;;;;;;;;;;;;;;17.58;55.69;99308.34;2099939;27;19916;-52
2022/04/13 01:32:56;;;;;;;;;;;;;;;17.57;55.49;99306.66;2096375;28;19911;-49
2022/04/13 01:33:59;;;;;;;;;;;;;;;17.58;55.68;99302.91;2084319;28;20020;-47
2022/04/13 01:34:59;;;;;;;;;;;;;;;17.56;55.76;99305.81;2086456;28;20139;-47
2022/04/13 01:36:02;;;;;;;;;;;;;;;17.58;55.78;99313.78;2084198;28;19921;-49
2022/04/13 01:37:03;;;;;;;;;;;;;;;17.55;55.61;99309.53;2083962;28;20219;-49
2022/04/13 01:38:04;;;;;;;;;;;;;;;17.57;55.73;99312.09;2080273;28;19924;-50
2022/04/13 01:39:05;;;;;;;;;;;;;;;17.55;55.87;99309.53;2099045;28;19915;-50
2022/04/13 01:40:06;;;;;;;;;;;;;;;17.55;55.80;99306.78;2093771;28;19923;-50
2022/04/13 01:41:06;;;;;;;;;;;;;;;17.56;55.50;99303.06;2081558;28;20051;-51
2022/04/13 01:42:07;;;;;;;;;;;;;;;17.57;55.68;99298.47;2084445;28;19924;-54
2022/04/13 01:43:07;;;;;;;;;;;;;;;17.54;55.64;99291.47;2082306;28;19921;-49
2022/04/13 01:44:07;;;;;;;;;;;;;;;17.56;55.59;99308.53;2080007;28;19951;-49
2022/04/13 01:45:08;;;;;;;;;;;;;;;17.57;55.68;99323.84;2078615;28;19974;-50
2022/04/13 01:46:08;;;;;;;;;;;;;;;17.55;55.85;99328.59;2082537;28;19928;-47
2022/04/13 01:47:09;;;;;;;;;;;;;;;17.56;55.70;99327.59;2084464;28;20555;-50
2022/04/13 01:48:10;;;;;;;;;;;;;;;17.56;55.88;99321.28;2078787;28;19968;-48
2022/04/13 01:49:10;;;;;;;;;;;;;;;17.54;55.83;99310.56;2084472;28;19920;-49
2022/04/13 01:50:11;;;;;;;;;;;;;;;17.57;55.85;99304.78;2078386;28;20239;-50
2022/04/13 01:51:11;;;;;;;;;;;;;;;17.56;55.73;99294.03;2082416;28;19920;-51
2022/04/13 01:52:12;;;;;;;;;;;;;;;17.55;56.02;99297.78;2083643;28;20014;-49
2022/04/13 01:53:12;;;;;;;;;;;;;;;17.56;56.02;99289.44;2082216;28;19924;-47
2022/04/13 01:54:13;;;;;;;;;;;;;;;17.56;56.12;99305.81;2084945;28;19924;-46
2022/04/13 01:55:13;;;;;;;;;;;;;;;17.55;55.92;99304.06;2080207;28;20255;-47
2022/04/13 01:56:14;;;;;;;;;;;;;;;17.56;56.20;99310.38;2080826;28;19994;-48
2022/04/13 01:57:14;;;;;;;;;;;;;;;17.55;56.22;99309.53;2078841;28;20424;-48
2022/04/13 01:58:15;;;;;;;;;;;;;;;17.55;56.19;99309.53;2082517;28;20232;-47
2022/04/13 01:59:15;;;;;;;;;;;;;;;17.54;56.11;99305.09;2081367;28;20525;-47
2022/04/13 02:00:16;;;;;;;;;;;;;;;17.54;56.20;99307.81;2080910;28;19947;-49
2022/04/13 02:01:17;;;;;;;;;;;;;;;17.53;56.00;99303.38;2085017;28;20269;-50
2022/04/13 02:02:18;;;;;;;;;;;;;;;17.54;56.22;99302.38;2081791;28;19931;-47
2022/04/13 02:03:19;;;;;;;;;;;;;;;17.54;56.05;99296.91;2084872;28;19927;-47
2022/04/13 02:04:20;;;;;;;;;;;;;;;17.55;56.05;99298.63;2083251;28;20136;-50
2022/04/13 02:05:20;;;;;;;;;;;;;;;17.54;56.15;99296.91;2082640;28;20240;-46
2022/04/13 02:06:21;;;;;;;;;;;;;;;17.54;56.22;99302.38;2083305;28;19990;-47
2022/04/13 02:07:21;;;;;;;;;;;;;;;17.53;56.33;99300.66;2082676;28;19913;-49
2022/04/13 02:08:22;;;;;;;;;;;;;;;17.54;56.15;99307.81;2083871;28;19947;-46
2022/04/13 02:09:22;;;;;;;;;;;;;;;17.55;56.19;99308.66;2083632;28;19920;-49
2022/04/13 02:10:23;;;;;;;;;;;;;;;17.55;56.25;99306.78;2080808;28;20533;-50
2022/04/13 02:11:23;;;;;;;;;;;;;;;17.54;56.46;99310.56;2087027;28;19973;-49
2022/04/13 02:12:23;;;;;;;;;;;;;;;17.55;56.26;99303.22;2081860;28;19930;-49
2022/04/13 02:13:24;;;;;;;;;;;;;;;17.55;56.37;99309.53;2083628;28;19967;-47
2022/04/13 02:14:24;;;;;;;;;;;;;;;17.54;56.23;99310.56;2085659;28;20609;-50
2022/04/13 02:15:24;;;;;;;;;;;;;;;17.55;56.26;99311.41;2084739;28;19960;-50
2022/04/13 02:16:25;;;;;;;;;;;;;;;17.53;56.30;99306.09;2081937;28;19921;-50
2022/04/13 02:17:25;;;;;;;;;;;;;;;17.53;56.43;99303.38;2085536;28;19930;-48
2022/04/13 02:18:25;;;;;;;;;;;;;;;17.53;56.16;99310.69;2081030;28;19956;-47
2022/04/13 02:19:25;;;;;;;;;;;;;;;17.54;56.09;99307.81;2082173;28;19963;-50
2022/04/13 02:20:26;;;;;;;;;;;;;;;17.53;55.87;99306.09;2085412;28;19931;-50
2022/04/13 02:21:26;;;;;;;;;;;;;;;17.52;55.88;99312.56;2085763;28;19920;-47
2022/04/13 02:22:26;;;;;;;;;;;;;;;17.53;55.88;99314.28;2083677;28;19928;-49
2022/04/13 02:23:27;;;;;;;;;;;;;;;17.52;55.88;99309.84;2084315;28;19920;-47
2022/04/13 02:24:27;;;;;;;;;;;;;;;17.52;55.73;99307.13;2082254;28;19920;-49
2022/04/13 02:25:28;;;;;;;;;;;;;;;17.54;55.71;99296.91;2087565;28;19920;-50
2022/04/13 02:26:28;;;;;;;;;;;;;;;17.54;55.55;99305.09;2081551;28;19920;-47
2022/04/13 02:27:28;;;;;;;;;;;;;;;17.53;55.64;99308.81;2079233;28;19968;-48
2022/04/13 02:28:29;;;;;;;;;;;;;;;17.53;55.59;99306.09;2084712;28;19927;-50
2022/04/13 02:29:29;;;;;;;;;;;;;;;17.52;55.50;99309.84;2081563;28;19920;-48
2022/04/13 02:30:29;;;;;;;;;;;;;;;17.53;55.85;99310.69;2087927;28;19920;-47
2022/04/13 02:31:29;;;;;;;;;;;;;;;17.52;55.79;99309.84;2082285;28;19943;-47
2022/04/13 02:32:30;;;;;;;;;;;;;;;17.52;55.82;99320.75;2086416;28;19926;-49
2022/04/13 02:33:31;;;;;;;;;;;;;;;17.52;55.70;99320.75;2088998;28;20273;-50
2022/04/13 02:34:32;;;;;;;;;;;;;;;17.52;55.76;99320.75;2082219;28;20947;-49
2022/04/13 02:35:32;;;;;;;;;;;;;;;17.52;55.93;99319.91;2080671;28;19912;-47
2022/04/13 02:36:33;;;;;;;;;;;;;;;17.51;56.00;99319.00;2087225;28;19970;-47
2022/04/13 02:37:33;;;;;;;;;;;;;;;17.52;55.81;99326.19;2082717;28;19920;-50
2022/04/13 02:38:33;;;;;;;;;;;;;;;17.53;55.91;99333.34;2081370;28;19958;-48
2022/04/13 02:39:34;;;;;;;;;;;;;;;17.53;55.84;99327.03;2095227;28;19969;-50
2022/04/13 02:40:34;;;;;;;;;;;;;;;17.52;55.93;99334.38;2098982;28;19958;-49
2022/04/13 02:41:35;;;;;;;;;;;;;;;17.52;56.19;99331.66;2085348;28;19909;-46
2022/04/13 02:42:36;;;;;;;;;;;;;;;17.52;56.06;99342.53;2083353;28;19930;-46
2022/04/13 02:43:36;;;;;;;;;;;;;;;17.52;55.99;99342.53;2087128;28;19931;-49
2022/04/13 02:44:36;;;;;;;;;;;;;;;17.52;55.83;99337.09;2078946;28;20322;-50
2022/04/13 02:45:37;;;;;;;;;;;;;;;17.52;55.99;99347.16;2083527;28;19920;-47
2022/04/13 02:46:37;;;;;;;;;;;;;;;17.51;55.81;99342.69;2086289;28;19920;-46
2022/04/13 02:47:38;;;;;;;;;;;;;;;17.52;55.92;99347.16;2081563;28;19920;-50
2022/04/13 02:48:38;;;;;;;;;;;;;;;17.52;55.81;99347.16;2087837;28;19920;-49
2022/04/13 02:49:39;;;;;;;;;;;;;;;17.50;55.74;99350.03;2084028;28;19924;-46
2022/04/13 02:50:39;;;;;;;;;;;;;;;17.51;55.52;99354.44;2084696;28;20238;-47
2022/04/13 02:51:40;;;;;;;;;;;;;;;17.50;55.75;99350.03;2080559;28;19928;-46
2022/04/13 02:52:40;;;;;;;;;;;;;;;17.51;55.60;99351.72;2086207;28;19945;-50
2022/04/13 02:53:40;;;;;;;;;;;;;;;17.51;55.76;99349.00;2097541;28;20308;-50
2022/04/13 02:54:41;;;;;;;;;;;;;;;17.51;55.69;99351.72;2095635;28;19916;-48
2022/04/13 02:55:41;;;;;;;;;;;;;;;17.50;55.73;99347.28;2081536;28;20007;-48
2022/04/13 02:56:42;;;;;;;;;;;;;;;17.50;55.59;99344.56;2082108;28;20286;-47
2022/04/13 02:57:42;;;;;;;;;;;;;;;17.51;55.73;99346.25;2085231;28;19921;-48
2022/04/13 02:58:42;;;;;;;;;;;;;;;17.50;55.52;99344.56;2081297;28;19917;-48
2022/04/13 02:59:46;;;;;;;;;;;;;;;17.50;55.70;99338.28;2080592;28;19920;-48
2022/04/13 03:00:47;;;;;;;;;;;;;;;17.51;55.65;99340.81;2085018;28;19920;-48
2022/04/13 03:01:49;;;;;;;;;;;;;;;17.50;55.66;99333.66;2084362;28;19956;-48
2022/04/13 03:02:50;;;;;;;;;;;;;;;17.50;55.63;99344.56;2082395;28;20043;-49
2022/04/13 03:03:50;;;;;;;;;;;;;;;17.50;55.85;99339.13;2086583;28;19923;-46
2022/04/13 03:04:51;;;;;;;;;;;;;;;17.49;55.82;99340.16;2079835;28;19921;-47
2022/04/13 03:05:51;;;;;;;;;;;;;;;17.50;55.73;99344.56;2085525;28;19920;-48
2022/04/13 03:06:52;;;;;;;;;;;;;;;17.50;55.87;99338.28;2087054;28;19924;-47
2022/04/13 03:07:52;;;;;;;;;;;;;;;17.50;55.77;99350.03;2085288;28;19971;-47
2022/04/13 03:08:52;;;;;;;;;;;;;;;17.50;55.82;99343.72;2087733;28;19927;-47
2022/04/13 03:09:53;;;;;;;;;;;;;;;17.49;55.94;99345.59;2085347;28;19921;-46
2022/04/13 03:10:53;;;;;;;;;;;;;;;17.51;56.18;99348.13;2081515;28;19920;-48
2022/04/13 03:11:53;;;;;;;;;;;;;;;17.49;56.02;99348.31;2084443;28;20503;-46
2022/04/13 03:12:54;;;;;;;;;;;;;;;17.50;55.80;99349.16;2082131;28;19925;-48
2022/04/13 03:13:54;;;;;;;;;;;;;;;17.50;56.05;99355.47;2084739;28;19920;-49
2022/04/13 03:14:55;;;;;;;;;;;;;;;17.50;55.77;99355.47;2082327;28;19925;-46
2022/04/13 03:15:55;;;;;;;;;;;;;;;17.50;55.86;99352.75;2082973;28;19928;-46
2022/04/13 03:16:55;;;;;;;;;;;;;;;17.49;55.96;99345.59;2082210;28;19925;-49
2022/04/13 03:17:55;;;;;;;;;;;;;;;17.49;56.13;99342.88;2083046;28;19917;-47
2022/04/13 03:18:56;;;;;;;;;;;;;;;17.49;56.00;99348.31;2082602;28;20794;-49
2022/04/13 03:19:56;;;;;;;;;;;;;;;17.48;56.04;99346.59;2087438;28;20238;-47
2022/04/13 03:20:56;;;;;;;;;;;;;;;17.49;55.99;99348.31;2082914;28;20094;-50
2022/04/13 03:21:57;;;;;;;;;;;;;;;17.49;55.86;99348.31;2084291;28;19957;-47
2022/04/13 03:22:57;;;;;;;;;;;;;;;17.48;55.89;99341.13;2080211;28;19920;-51
2022/04/13 03:23:58;;;;;;;;;;;;;;;17.49;55.95;99345.59;2086837;28;19924;-49
2022/04/13 03:25:01;;;;;;;;;;;;;;;17.49;56.11;99342.88;2085749;28;20081;-46
2022/04/13 03:26:01;;;;;;;;;;;;;;;17.48;55.77;99345.75;2082800;28;19916;-46
2022/04/13 03:27:02;;;;;;;;;;;;;;;17.49;55.70;99348.31;2086328;28;19938;-48
2022/04/13 03:28:03;;;;;;;;;;;;;;;17.48;55.59;99346.59;2083599;28;19924;-50
2022/04/13 03:29:03;;;;;;;;;;;;;;;17.48;55.87;99352.03;2084178;28;19917;-50
2022/04/13 03:30:04;;;;;;;;;;;;;;;17.48;55.73;99343.88;2084152;28;19920;-50
2022/04/13 03:31:04;;;;;;;;;;;;;;;17.48;55.59;99346.59;2082878;28;19917;-55
2022/04/13 03:32:05;;;;;;;;;;;;;;;17.47;55.59;99344.88;2086616;28;20287;-48
2022/04/13 03:33:05;;;;;;;;;;;;;;;17.48;55.56;99352.03;2083979;28;19920;-49
2022/04/13 03:34:06;;;;;;;;;;;;;;;17.47;55.68;99344.88;2084024;28;19916;-46
2022/04/13 03:35:07;;;;;;;;;;;;;;;17.47;55.65;99344.03;2085516;28;20007;-48
2022/04/13 03:36:07;;;;;;;;;;;;;;;17.47;55.73;99350.34;2085041;28;19920;-45
2022/04/13 03:37:07;;;;;;;;;;;;;;;17.47;55.60;99344.03;2082104;28;19916;-46
2022/04/13 03:38:08;;;;;;;;;;;;;;;17.46;55.52;99347.75;2081844;28;20003;-47
2022/04/13 03:39:08;;;;;;;;;;;;;;;17.47;55.56;99344.03;2082233;28;19924;-48
2022/04/13 03:40:10;;;;;;;;;;;;;;;17.45;55.69;99344.19;2087330;28;19960;-49
2022/04/13 03:41:10;;;;;;;;;;;;;;;17.46;55.55;99345.88;2082951;28;20402;-47
2022/04/13 03:42:10;;;;;;;;;;;;;;;17.46;55.77;99343.16;2084086;28;19924;-47
2022/04/13 03:43:11;;;;;;;;;;;;;;;17.47;55.59;99350.34;2085627;28;19928;-51
2022/04/13 03:44:11;;;;;;;;;;;;;;;17.47;55.81;99347.63;2087765;28;19920;-48
2022/04/13 03:45:13;;;;;;;;;;;;;;;17.46;55.82;99347.75;2083276;28;19921;-47
2022/04/13 03:46:13;;;;;;;;;;;;;;;17.46;55.64;99345.88;2082677;28;19920;-47
2022/04/13 03:47:14;;;;;;;;;;;;;;;17.46;55.72;99343.16;2084198;28;19920;-48
2022/04/13 03:48:14;;;;;;;;;;;;;;;17.46;55.95;99348.63;2085414;28;19920;-46
2022/04/13 03:49:14;;;;;;;;;;;;;;;17.46;55.65;99348.63;2084930;28;19934;-47
2022/04/13 03:50:15;;;;;;;;;;;;;;;17.46;55.98;99354.06;2081748;28;19924;-46
2022/04/13 03:51:15;;;;;;;;;;;;;;;17.46;55.88;99356.78;2083253;28;20207;-46
2022/04/13 03:52:15;;;;;;;;;;;;;;;17.47;55.75;99361.25;2084967;28;19967;-48
2022/04/13 03:53:16;;;;;;;;;;;;;;;17.46;55.70;99359.50;2087749;28;19913;-48
2022/04/13 03:54:16;;;;;;;;;;;;;;;17.46;55.92;99359.50;2081011;28;19913;-46
2022/04/13 03:55:22;;;;;;;;;;;;;;;17.46;55.91;99348.63;2085044;28;20280;-45
2022/04/13 03:56:22;;;;;;;;;;;;;;;17.46;55.80;99347.75;2079636;28;19921;-51
2022/04/13 03:57:22;;;;;;;;;;;;;;;17.45;55.87;99352.34;2085212;28;20334;-49
2022/04/13 03:58:22;;;;;;;;;;;;;;;17.46;55.89;99353.22;2080451;28;19924;-47
2022/04/13 03:59:23;;;;;;;;;;;;;;;17.46;55.87;99354.06;2080825;28;19986;-49
2022/04/13 04:00:25;;;;;;;;;;;;;;;17.45;55.81;99352.34;2084524;28;19912;-49
2022/04/13 04:01:26;;;;;;;;;;;;;;;17.45;55.75;99346.06;2079618;28;19920;-46
2022/04/13 04:02:27;;;;;;;;;;;;;;;17.45;55.69;99351.50;2083178;28;20266;-47
2022/04/13 04:03:27;;;;;;;;;;;;;;;17.44;55.91;99349.78;2085789;28;19959;-47
2022/04/13 04:04:28;;;;;;;;;;;;;;;17.44;55.61;99345.22;2083735;28;19931;-47
2022/04/13 04:05:28;;;;;;;;;;;;;;;17.44;55.67;99345.22;2087181;28;20234;-46
2022/04/13 04:06:29;;;;;;;;;;;;;;;17.45;55.66;99335.16;2080596;28;19975;-46
2022/04/13 04:07:29;;;;;;;;;;;;;;;17.44;55.75;99338.88;2085569;28;19912;-49
2022/04/13 04:08:31;;;;;;;;;;;;;;;17.44;55.58;99336.16;2081850;28;19943;-47
2022/04/13 04:09:31;;;;;;;;;;;;;;;17.43;55.55;99331.72;2083388;28;20543;-46
2022/04/13 04:10:32;;;;;;;;;;;;;;;17.43;55.60;99335.31;2082906;28;20480;-49
2022/04/13 04:11:32;;;;;;;;;;;;;;;17.43;55.54;99342.63;2081402;28;20087;-50
2022/04/13 04:12:36;;;;;;;;;;;;;;;17.43;55.53;99338.03;2085699;28;19912;-50
2022/04/13 04:13:36;;;;;;;;;;;;;;;17.43;55.71;99348.94;2081571;28;20031;-50
2022/04/13 04:14:37;;;;;;;;;;;;;;;17.42;55.72;99349.97;2084610;28;20243;-49
2022/04/13 04:15:37;;;;;;;;;;;;;;;17.44;55.85;99350.66;2082073;28;20272;-51
2022/04/13 04:16:37;;;;;;;;;;;;;;;17.43;55.66;99354.38;2082904;28;20298;-50
2022/04/13 04:17:38;;;;;;;;;;;;;;;17.44;55.60;99355.22;2085645;28;19954;-46
2022/04/13 04:18:38;;;;;;;;;;;;;;;17.44;55.75;99353.38;2087138;28;19922;-51
2022/04/13 04:19:38;;;;;;;;;;;;;;;17.43;55.79;99357.09;2083229;28;21053;-47
2022/04/13 04:20:39;;;;;;;;;;;;;;;17.43;55.99;99351.66;2087518;28;20787;-50
2022/04/13 04:21:39;;;;;;;;;;;;;;;17.44;55.83;99358.84;2082894;28;19920;-50
2022/04/13 04:22:39;;;;;;;;;;;;;;;17.44;55.87;99347.06;2084141;28;19925;-49
2022/04/13 04:23:40;;;;;;;;;;;;;;;17.43;55.93;99357.09;2098886;27;19920;-54
2022/04/13 04:24:40;;;;;;;;;;;;;;;17.43;55.88;99354.38;2097327;27;20257;-50
2022/04/13 04:25:40;;;;;;;;;;;;;;;17.44;55.92;99356.13;2084039;28;19952;-48
2022/04/13 04:26:42;;;;;;;;;;;;;;;17.44;55.82;99357.97;2083494;28;19928;-51
2022/04/13 04:27:43;;;;;;;;;;;;;;;17.44;55.90;99353.38;2085436;28;19912;-49
2022/04/13 04:28:43;;;;;;;;;;;;;;;17.43;55.70;99354.38;2083580;28;19915;-47
2022/04/13 04:29:43;;;;;;;;;;;;;;;17.43;55.80;99356.25;2083146;28;19920;-48
2022/04/13 04:30:44;;;;;;;;;;;;;;;17.43;55.97;99358.97;2084964;28;19924;-49
2022/04/13 04:31:50;;;;;;;;;;;;;;;17.42;55.61;99358.13;2079929;28;20016;-49
2022/04/13 04:32:50;;;;;;;;;;;;;;;17.43;55.68;99359.84;2085526;28;19935;-47
2022/04/13 04:33:50;;;;;;;;;;;;;;;17.43;55.83;99358.97;2096297;28;19960;-49
2022/04/13 04:34:51;;;;;;;;;;;;;;;17.42;55.82;99355.41;2095926;28;19920;-50
2022/04/13 04:35:51;;;;;;;;;;;;;;;17.42;55.66;99362.69;2083948;28;19950;-48
2022/04/13 04:36:52;;;;;;;;;;;;;;;17.43;55.85;99367.16;2080370;28;20260;-49
2022/04/13 04:37:52;;;;;;;;;;;;;;;17.43;55.85;99365.28;2086328;28;19924;-48
2022/04/13 04:38:52;;;;;;;;;;;;;;;17.42;55.61;99360.84;2083432;28;19920;-47
2022/04/13 04:39:52;;;;;;;;;;;;;;;17.42;55.61;99369.03;2088276;28;19920;-47
2022/04/13 04:40:53;;;;;;;;;;;;;;;17.43;55.92;99365.28;2083870;28;19913;-48
2022/04/13 04:41:53;;;;;;;;;;;;;;;17.43;55.80;99370.72;2084585;28;20350;-47
2022/04/13 04:42:54;;;;;;;;;;;;;;;17.44;55.63;99371.56;2089563;28;20423;-50
2022/04/13 04:43:54;;;;;;;;;;;;;;;17.43;55.66;99368.00;2080801;28;20299;-50
2022/04/13 04:44:56;;;;;;;;;;;;;;;17.44;55.56;99377.03;2084457;28;20449;-47
2022/04/13 04:45:58;;;;;;;;;;;;;;;17.44;55.89;99372.47;2100286;28;19914;-47
2022/04/13 04:46:58;;;;;;;;;;;;;;;17.44;55.74;99372.47;2095220;28;19915;-47
2022/04/13 04:48:04;;;;;;;;;;;;;;;17.46;55.64;99372.28;2091746;28;19951;-51
2022/04/13 04:49:04;;;;;;;;;;;;;;;17.47;55.75;99379.47;2083639;28;20068;-47
2022/04/13 04:50:05;;;;;;;;;;;;;;;17.46;55.74;99375.00;2100638;28;20408;-47
2022/04/13 04:51:06;;;;;;;;;;;;;;;17.47;55.60;99376.75;2100363;28;19931;-46
2022/04/13 04:52:06;;;;;;;;;;;;;;;17.46;55.91;99381.31;2080819;28;20381;-48
2022/04/13 04:53:07;;;;;;;;;;;;;;;17.47;55.87;99382.19;2084318;28;19913;-49
2022/04/13 04:54:07;;;;;;;;;;;;;;;17.48;56.09;99381.16;2081640;28;20342;-51
2022/04/13 04:55:08;;;;;;;;;;;;;;;17.48;55.79;99379.28;2083801;28;19920;-48
2022/04/13 04:56:08;;;;;;;;;;;;;;;17.49;56.12;99386.47;2082220;28;20319;-48
2022/04/13 04:57:09;;;;;;;;;;;;;;;17.49;55.99;99389.19;2083848;28;21128;-47
2022/04/13 04:58:10;;;;;;;;;;;;;;;17.49;55.78;99391.91;2081992;28;20753;-49
2022/04/13 04:59:10;;;;;;;;;;;;;;;17.49;55.85;99389.19;2081655;28;19931;-49
2022/04/13 05:00:12;;;;;;;;;;;;;;;17.50;55.68;99393.63;2082867;28;19924;-48
2022/04/13 05:01:12;;;;;;;;;;;;;;;17.49;55.92;99391.03;2080028;28;20306;-47
2022/04/13 05:02:12;;;;;;;;;;;;;;;17.49;55.71;99399.22;2086163;28;19967;-46
2022/04/13 05:03:13;;;;;;;;;;;;;;;17.49;55.79;99397.38;2083505;28;19966;-48
2022/04/13 05:04:13;;;;;;;;;;;;;;;17.49;55.89;99402.81;2082190;28;19928;-48
2022/04/13 05:05:14;;;;;;;;;;;;;;;17.49;55.80;99402.81;2085558;28;19916;-49
2022/04/13 05:06:20;;;;;;;;;;;;;;;17.49;55.96;99404.66;2080456;28;19920;-51
2022/04/13 05:07:21;;;;;;;;;;;;;;;17.49;55.86;99407.38;2082483;28;20003;-48
2022/04/13 05:08:21;;;;;;;;;;;;;;;17.48;55.90;99406.53;2082122;28;19920;-49
2022/04/13 05:09:22;;;;;;;;;;;;;;;17.49;55.91;99412.84;2083104;28;20182;-48
2022/04/13 05:10:23;;;;;;;;;;;;;;;17.48;55.85;99406.53;2082127;28;19927;-49
2022/04/13 05:11:23;;;;;;;;;;;;;;;17.49;55.96;99401.94;2084706;28;20689;-47
2022/04/13 05:12:24;;;;;;;;;;;;;;;17.49;55.75;99404.66;2085614;28;19921;-49
2022/04/13 05:13:24;;;;;;;;;;;;;;;17.48;55.80;99403.81;2085135;28;19922;-49
2022/04/13 05:14:25;;;;;;;;;;;;;;;17.49;56.08;99404.66;2083868;28;20267;-47
2022/04/13 05:15:25;;;;;;;;;;;;;;;17.48;55.76;99406.53;2083770;28;19977;-47
2022/04/13 05:16:25;;;;;;;;;;;;;;;17.50;55.73;99420.88;2082427;28;20332;-47
2022/04/13 05:17:26;;;;;;;;;;;;;;;17.49;55.83;99419.16;2084126;28;19917;-51